Realist — WDH6772 — position and weather

sailwx.info

Track history (hours):
 
Tides and Currents Weather Stations Pressure Air Temp Water Temp Dewpoint Dewpoint Depression Visibility Wind Speed Wind Dir Waves Ship Positions

Realist

Owner: New York Marine Towing, Inc PO Box 444 Montauk, NY 11954, monauk, NY. More information available from US FCC via Universal Licensing System and Coast Guard Vessel Documentation Center.

Last reported at 2017-Oct-19 22:12 UTC. Time now 2017-Oct-19 23:29 UTC.
Position N 40°51' W 073°45'.

; draft 3.5 m.

Type: Towing. MMSI: 367641460.

Date/timePositionNaut miles runAvg speedWind from/ knotsBaromVisibWave heightAir tempDewpointWater temp
2017-Oct-19 22:12N 40°51' W 073°45'5 6.6
2017-Oct-19 21:23N 40°48' W 073°51'4 7.3
2017-Oct-19 20:55N 40°47' W 073°55'3 6.7
2017-Oct-19 20:31N 40°45' W 073°58'3 5.6
2017-Oct-19 20:01N 40°42' W 073°59'3 5.2
2017-Oct-19 19:31N 40°41' W 074°02'3 5.8
2017-Oct-19 19:00N 40°39' W 074°05'4 6.9
2017-Oct-19 18:30N 40°39' W 074°09'2 4.5
2017-Oct-19 17:57N 40°37' W 074°12'7 0.6
2017-Oct-19 07:26N 40°31' W 074°15'1 2.1
2017-Oct-19 06:57N 40°32' W 074°15'3 7.6
2017-Oct-19 06:30N 40°35' W 074°13'4 8.2
2017-Oct-19 06:00N 40°39' W 074°11'1 2.6
2017-Oct-19 05:30N 40°38' W 074°09'1 1.4
2017-Oct-19 05:00N 40°39' W 074°08'2 4.2
2017-Oct-19 04:30N 40°39' W 074°06'2 3.4
2017-Oct-19 04:00N 40°39' W 074°03'3 5.6
2017-Oct-19 03:31N 40°41' W 074°01'3 6.0
2017-Oct-19 03:00N 40°44' W 073°58'3 6.2
2017-Oct-19 02:31N 40°46' W 073°57'5 3.9
2017-Oct-19 01:13N 40°48' W 073°50'61 5.2
2017-Oct-18 13:26N 41°09' W 072°34'3 6.4
2017-Oct-18 13:01N 41°09' W 072°31'3 6.5
2017-Oct-18 12:31N 41°10' W 072°26'3 6.7
2017-Oct-18 12:00N 41°11' W 072°22'3 6.8
2017-Oct-18 11:31N 41°12' W 072°18'96 4.3
2017-Oct-17 12:57N 42°15' W 070°41'3 5.9
2017-Oct-17 12:29N 42°17' W 070°43'3 5.6
2017-Oct-17 12:00N 42°19' W 070°46'3 5.6
2017-Oct-17 11:30N 42°20' W 070°49'3 5.5
2017-Oct-17 11:00N 42°22' W 070°52'2 3.9
2017-Oct-17 10:30N 42°21' W 070°55'1 3.0
2017-Oct-17 10:00N 42°20' W 070°56'2 4.0
2017-Oct-17 09:30N 42°20' W 070°59'2 4.5
2017-Oct-17 09:00N 42°21' W 071°02'1 1.7
2017-Oct-17 08:30N 42°22' W 071°03'0 0.1
2017-Oct-17 08:00N 42°22' W 071°03'0 0.0
2017-Oct-17 07:30N 42°22' W 071°03'1 1.1
2017-Oct-17 07:00N 42°22' W 071°03'0 0.0
2017-Oct-17 06:30N 42°22' W 071°03'0 0.9
2017-Oct-17 06:00N 42°22' W 071°03'3 5.8
2017-Oct-17 05:30N 42°20' W 070°60'4 7.8
2017-Oct-17 05:00N 42°19' W 070°55'4 7.7
2017-Oct-17 04:30N 42°19' W 070°49'4 7.9
2017-Oct-17 04:00N 42°17' W 070°44'  
Track history (hours):
 
Tides and Currents Weather Stations Pressure Air Temp Water Temp Dewpoint Dewpoint Depression Visibility Wind Speed Wind Dir Waves Ship Positions

Realist

Owner: New York Marine Towing, Inc PO Box 444 Montauk, NY 11954, monauk, NY. More information available from US FCC via Universal Licensing System and Coast Guard Vessel Documentation Center.

Last reported at 2017-Oct-19 22:12 UTC. Time now 2017-Oct-19 23:29 UTC.
Position N 40°51' W 073°45'.

; draft 3.5 m.

Type: Towing. MMSI: 367641460.

Date/timePositionNaut miles runAvg speedWind from/ knotsBaromVisibWave heightAir tempDewpointWater temp
2017-Oct-19 22:12N 40°51' W 073°45'5 6.6
2017-Oct-19 21:23N 40°48' W 073°51'4 7.3
2017-Oct-19 20:55N 40°47' W 073°55'3 6.7
2017-Oct-19 20:31N 40°45' W 073°58'3 5.6
2017-Oct-19 20:01N 40°42' W 073°59'3 5.2
2017-Oct-19 19:31N 40°41' W 074°02'3 5.8
2017-Oct-19 19:00N 40°39' W 074°05'4 6.9
2017-Oct-19 18:30N 40°39' W 074°09'2 4.5
2017-Oct-19 17:57N 40°37' W 074°12'7 0.6
2017-Oct-19 07:26N 40°31' W 074°15'1 2.1
2017-Oct-19 06:57N 40°32' W 074°15'3 7.6
2017-Oct-19 06:30N 40°35' W 074°13'4 8.2
2017-Oct-19 06:00N 40°39' W 074°11'1 2.6
2017-Oct-19 05:30N 40°38' W 074°09'1 1.4
2017-Oct-19 05:00N 40°39' W 074°08'2 4.2
2017-Oct-19 04:30N 40°39' W 074°06'2 3.4
2017-Oct-19 04:00N 40°39' W 074°03'3 5.6
2017-Oct-19 03:31N 40°41' W 074°01'3 6.0
2017-Oct-19 03:00N 40°44' W 073°58'3 6.2
2017-Oct-19 02:31N 40°46' W 073°57'5 3.9
2017-Oct-19 01:13N 40°48' W 073°50'61 5.2
2017-Oct-18 13:26N 41°09' W 072°34'3 6.4
2017-Oct-18 13:01N 41°09' W 072°31'3 6.5
2017-Oct-18 12:31N 41°10' W 072°26'3 6.7
2017-Oct-18 12:00N 41°11' W 072°22'3 6.8
2017-Oct-18 11:31N 41°12' W 072°18'96 4.3
2017-Oct-17 12:57N 42°15' W 070°41'3 5.9
2017-Oct-17 12:29N 42°17' W 070°43'3 5.6
2017-Oct-17 12:00N 42°19' W 070°46'3 5.6
2017-Oct-17 11:30N 42°20' W 070°49'3 5.5
2017-Oct-17 11:00N 42°22' W 070°52'2 3.9
2017-Oct-17 10:30N 42°21' W 070°55'1 3.0
2017-Oct-17 10:00N 42°20' W 070°56'2 4.0
2017-Oct-17 09:30N 42°20' W 070°59'2 4.5
2017-Oct-17 09:00N 42°21' W 071°02'1 1.7
2017-Oct-17 08:30N 42°22' W 071°03'0 0.1
2017-Oct-17 08:00N 42°22' W 071°03'0 0.0
2017-Oct-17 07:30N 42°22' W 071°03'1 1.1
2017-Oct-17 07:00N 42°22' W 071°03'0 0.0
2017-Oct-17 06:30N 42°22' W 071°03'0 0.9
2017-Oct-17 06:00N 42°22' W 071°03'3 5.8
2017-Oct-17 05:30N 42°20' W 070°60'4 7.8
2017-Oct-17 05:00N 42°19' W 070°55'4 7.7
2017-Oct-17 04:30N 42°19' W 070°49'4 7.9
2017-Oct-17 04:00N 42°17' W 070°44'  

Dump ship's entire track history